Time;durP1;ratioP1;P1;durP2;ratioP2;P2;SDS_P1;SDS_P2;PMS_P1;PMS_P2;Temp;Humidity;BMP_temperature;BMP_pressure;BME280_temperature;BME280_humidity;BME280_pressure;Samples;Min_cycle;Max_cycle;Signal;HPM_P1;HPM_P2
2021/08/19 00:00:37;;;;;;;12.77;10.60;;;;;;;17.45;100.00;101298.00;5171502;28;20507;-69
2021/08/19 00:03:08;;;;;;;14.20;10.53;;;;;;;17.45;100.00;101292.72;5169781;28;20062;-68
2021/08/19 00:05:40;;;;;;;13.73;10.43;;;;;;;17.45;100.00;101283.94;5172022;28;20027;-68
2021/08/19 00:08:11;;;;;;;17.60;10.13;;;;;;;17.44;100.00;101290.25;5172221;28;20037;-68
2021/08/19 00:10:42;;;;;;;14.33;10.67;;;;;;;17.46;100.00;101288.25;5170933;28;20018;-67
2021/08/19 00:13:13;;;;;;;15.73;11.10;;;;;;;17.44;100.00;101290.25;5172197;28;20022;-69
2021/08/19 00:15:45;;;;;;;15.02;12.25;;;;;;;17.42;100.00;101284.25;5170891;28;20031;-68
2021/08/19 00:18:16;;;;;;;17.95;14.25;;;;;;;17.41;100.00;101285.28;5171691;28;20031;-67
2021/08/19 00:20:49;;;;;;;18.17;13.07;;;;;;;17.40;100.00;101281.78;5171691;28;20042;-68
2021/08/19 00:23:20;;;;;;;17.73;14.57;;;;;;;17.38;100.00;101289.06;5170719;28;20035;-68
2021/08/19 00:25:51;;;;;;;17.27;14.13;;;;;;;17.36;100.00;101291.06;5175958;28;20018;-67
2021/08/19 00:28:23;;;;;;;23.08;13.98;;;;;;;17.37;100.00;101283.94;5175196;28;20023;-68
2021/08/19 00:30:54;;;;;;;19.07;14.27;;;;;;;17.36;100.00;101282.28;5174920;28;20026;-68
2021/08/19 00:33:25;;;;;;;22.40;15.20;;;;;;;17.34;100.00;101286.91;5176032;28;20069;-70
2021/08/19 00:35:57;;;;;;;18.95;14.40;;;;;;;17.33;100.00;101285.25;5174596;28;20050;-68
2021/08/19 00:38:28;;;;;;;19.58;14.90;;;;;;;17.26;100.00;101270.00;5175329;28;20039;-67
2021/08/19 00:40:59;;;;;;;18.02;13.82;;;;;;;17.27;100.00;101271.69;5175971;28;20476;-69
2021/08/19 00:43:34;;;;;;;17.40;13.60;;;;;;;17.29;100.00;101276.81;5176528;28;20424;-70
2021/08/19 00:46:23;;;;;;;18.60;15.13;;;;;;;17.37;100.00;101273.34;5173938;28;20051;-68
2021/08/19 00:48:58;;;;;;;17.30;14.93;;;;;;;17.26;100.00;101280.59;5175957;28;20022;-68
2021/08/19 00:51:35;;;;;;;21.70;16.52;;;;;;;17.23;100.00;101272.97;5175273;28;20027;-68
2021/08/19 00:54:09;;;;;;;20.35;16.88;;;;;;;17.16;100.00;101272.00;5174707;28;20488;-68
2021/08/19 00:56:40;;;;;;;20.67;15.70;;;;;;;17.18;100.00;101279.78;5175671;28;20400;-68
2021/08/19 00:59:12;;;;;;;20.08;16.27;;;;;;;17.18;100.00;101274.47;5175473;28;20030;-67
2021/08/19 01:01:44;;;;;;;22.30;15.95;;;;;;;17.15;100.00;101274.78;5175737;28;20404;-68
2021/08/19 01:04:15;;;;;;;20.00;16.73;;;;;;;17.16;100.00;101279.94;5174698;28;20464;-68
2021/08/19 01:06:46;;;;;;;18.77;16.03;;;;;;;17.14;100.00;101273.97;5176164;28;20476;-68
2021/08/19 01:09:18;;;;;;;19.57;15.43;;;;;;;17.12;100.00;101272.47;5175088;28;20427;-68
2021/08/19 01:11:49;;;;;;;22.37;16.37;;;;;;;17.11;100.00;101271.63;5175305;28;20200;-68
2021/08/19 01:14:24;;;;;;;19.27;14.10;;;;;;;17.13;100.00;101266.19;5174504;28;20027;-68
2021/08/19 01:16:55;;;;;;;17.77;14.35;;;;;;;17.09;100.00;101276.28;5174871;28;20054;-67
2021/08/19 01:19:26;;;;;;;22.33;14.98;;;;;;;17.10;100.00;101271.81;5174852;28;20480;-67
2021/08/19 01:21:57;;;;;;;18.60;15.10;;;;;;;17.08;100.00;101277.25;5174066;28;20403;-67
2021/08/19 01:24:29;;;;;;;16.67;13.82;;;;;;;17.09;100.00;101271.00;5175194;28;20462;-67
2021/08/19 01:27:00;;;;;;;18.52;14.48;;;;;;;17.09;100.00;101268.34;5175717;28;20475;-68
2021/08/19 01:29:31;;;;;;;18.08;14.25;;;;;;;17.08;100.00;101264.03;5174786;28;20030;-68
2021/08/19 01:32:05;;;;;;;15.07;13.53;;;;;;;17.08;100.00;101257.91;5173603;28;20025;-68
2021/08/19 01:34:38;;;;;;;20.55;15.15;;;;;;;17.03;100.00;101263.69;5174486;28;20023;-68
2021/08/19 01:37:12;;;;;;;21.65;15.38;;;;;;;17.06;100.00;101259.91;5174802;28;20550;-68
2021/08/19 01:39:43;;;;;;;19.92;15.43;;;;;;;17.03;100.00;101259.22;5172872;28;20626;-67
2021/08/19 01:42:16;;;;;;;20.85;15.98;;;;;;;17.06;100.00;101254.59;5175402;28;20113;-68
2021/08/19 01:44:47;;;;;;;23.75;16.25;;;;;;;17.05;100.00;101258.22;5174331;28;20031;-67
2021/08/19 01:47:21;;;;;;;26.40;17.13;;;;;;;17.06;100.00;101249.31;5173384;28;20035;-68
2021/08/19 01:49:52;;;;;;;18.95;16.13;;;;;;;17.04;100.00;101257.41;5174262;28;20022;-68
2021/08/19 01:52:24;;;;;;;21.63;16.77;;;;;;;17.07;100.00;101251.78;5173412;28;20085;-67
2021/08/19 01:54:55;;;;;;;17.23;14.60;;;;;;;17.05;100.00;101251.13;5175276;28;20022;-67
2021/08/19 01:57:26;;;;;;;22.05;16.65;;;;;;;17.05;100.00;101250.28;5173419;28;20026;-67
2021/08/19 01:59:57;;;;;;;16.60;14.77;;;;;;;17.05;100.00;101251.13;5174482;28;20026;-68
2021/08/19 02:02:30;;;;;;;17.93;13.87;;;;;;;17.06;100.00;101249.31;5172476;28;20105;-67
2021/08/19 02:05:02;;;;;;;20.55;14.77;;;;;;;17.05;100.00;101256.44;5172749;28;20030;-68
2021/08/19 02:07:33;;;;;;;19.80;14.50;;;;;;;17.03;100.00;101251.28;5174020;28;20027;-66
2021/08/19 02:10:07;;;;;;;22.65;16.10;;;;;;;17.02;100.00;101251.44;5174723;28;20038;-67
2021/08/19 02:12:38;;;;;;;21.58;15.18;;;;;;;17.00;100.00;101254.25;5172776;28;20043;-68
2021/08/19 02:15:10;;;;;;;19.67;14.93;;;;;;;17.02;100.00;101244.34;5173892;28;20030;-68
2021/08/19 02:17:42;;;;;;;21.05;16.38;;;;;;;17.02;100.00;101246.16;5173939;28;20038;-68
2021/08/19 02:20:13;;;;;;;18.13;15.37;;;;;;;17.01;100.00;101247.97;5173663;28;20023;-68
2021/08/19 02:22:47;;;;;;;19.27;16.38;;;;;;;17.01;100.00;101247.16;5173632;28;20558;-67
2021/08/19 02:25:19;;;;;;;19.13;16.35;;;;;;;17.01;100.00;101255.09;5173924;28;20019;-68
2021/08/19 02:27:50;;;;;;;24.85;16.50;;;;;;;17.02;100.00;101249.63;5172366;28;20027;-68
2021/08/19 02:30:22;;;;;;;21.13;17.13;;;;;;;17.01;100.00;101252.44;5173403;28;20030;-68
2021/08/19 02:32:56;;;;;;;20.17;16.23;;;;;;;16.99;100.00;101242.00;5173922;28;20022;-67
2021/08/19 02:35:29;;;;;;;24.83;17.17;;;;;;;16.99;100.00;101251.78;5173789;28;20038;-68
2021/08/19 02:38:05;;;;;;;22.70;17.70;;;;;;;16.97;100.00;101248.44;5172253;28;20043;-68
2021/08/19 02:40:36;;;;;;;20.75;17.90;;;;;;;16.96;100.00;101244.16;5173560;28;20054;-67
2021/08/19 02:43:08;;;;;;;25.73;18.73;;;;;;;16.97;100.00;101246.66;5174069;28;20177;-68
2021/08/19 02:45:40;;;;;;;26.50;19.38;;;;;;;16.96;100.00;101246.78;5172854;28;20039;-67
2021/08/19 02:48:11;;;;;;;26.60;18.48;;;;;;;16.98;100.00;101239.53;5171204;28;20022;-68
2021/08/19 02:50:42;;;;;;;26.48;20.23;;;;;;;16.92;100.00;101243.63;5173306;28;20023;-67
2021/08/19 02:53:13;;;;;;;25.23;20.08;;;;;;;16.92;100.00;101245.47;5174380;28;20015;-68
2021/08/19 02:55:45;;;;;;;26.30;20.20;;;;;;;16.92;100.00;101245.47;5173701;28;20034;-67
2021/08/19 02:58:16;;;;;;;26.05;21.35;;;;;;;16.90;100.00;101245.63;5171850;28;20041;-67
2021/08/19 03:00:47;;;;;;;25.27;20.98;;;;;;;16.90;100.00;101234.22;5173471;28;20420;-67
2021/08/19 03:03:18;;;;;;;29.65;20.77;;;;;;;16.86;100.00;101236.38;5173835;28;20369;-68
2021/08/19 03:05:50;;;;;;;24.80;21.65;;;;;;;16.87;100.00;101243.31;5172540;28;20031;-68
2021/08/19 03:08:21;;;;;;;28.45;20.17;;;;;;;16.88;100.00;101244.13;5173106;28;20019;-67
2021/08/19 03:10:52;;;;;;;27.45;21.70;;;;;;;16.86;100.00;101240.81;5172626;28;20031;-68
2021/08/19 03:13:24;;;;;;;31.77;22.20;;;;;;;16.88;100.00;101238.84;5172857;28;20038;-68
2021/08/19 03:15:55;;;;;;;25.55;20.95;;;;;;;16.85;100.00;101233.88;5171028;28;20057;-68
2021/08/19 03:18:26;;;;;;;28.35;21.75;;;;;;;16.86;100.00;101230.22;5173880;28;20527;-68
2021/08/19 03:20:58;;;;;;;29.67;20.67;;;;;;;16.84;100.00;101233.03;5172597;28;20026;-67
2021/08/19 03:23:30;;;;;;;30.15;22.23;;;;;;;16.83;100.00;101235.84;5171811;28;20018;-68
2021/08/19 03:26:01;;;;;;;26.92;20.48;;;;;;;16.80;100.00;101229.06;5172849;28;20034;-68
2021/08/19 03:28:32;;;;;;;26.43;21.23;;;;;;;16.81;100.00;101230.72;5172004;28;20062;-67
2021/08/19 03:31:04;;;;;;;25.27;21.05;;;;;;;16.82;100.00;101239.47;5173226;28;20036;-67
2021/08/19 03:33:37;;;;;;;26.05;20.35;;;;;;;16.81;100.00;101235.19;5170518;28;20261;-68
2021/08/19 03:36:08;;;;;;;25.92;21.85;;;;;;;16.82;100.00;101234.19;5173254;28;20030;-68
2021/08/19 03:38:41;;;;;;;26.85;21.52;;;;;;;16.79;100.00;101235.34;5172180;28;20369;-68
2021/08/19 03:41:12;;;;;;;27.55;21.23;;;;;;;16.78;100.00;101236.31;5171887;28;20023;-68
2021/08/19 03:43:45;;;;;;;28.50;21.83;;;;;;;16.80;100.00;101236.19;5172779;28;20038;-68
2021/08/19 03:46:16;;;;;;;;;;;;;;;17.05;100.00;101229.97;5172483;28;20038;-68
2021/08/19 03:48:48;;;;;;;27.20;20.97;;;;;;;16.80;100.00;101230.88;5172805;28;20186;-67
2021/08/19 03:51:19;;;;;;;27.40;21.25;;;;;;;16.78;100.00;101231.03;5171903;28;20296;-67
2021/08/19 03:53:53;;;;;;;26.73;21.00;;;;;;;16.76;100.00;101231.19;5172974;28;20054;-67
2021/08/19 03:56:28;;;;;;;22.88;20.08;;;;;;;16.73;100.00;101236.81;5171701;28;20546;-68
2021/08/19 03:58:59;;;;;;;27.92;21.40;;;;;;;16.74;100.00;101241.13;5170832;28;20035;-67
2021/08/19 04:01:30;;;;;;;25.42;20.70;;;;;;;16.74;100.00;101232.34;5170547;28;20030;-67
2021/08/19 04:04:02;;;;;;;27.17;21.08;;;;;;;16.75;100.00;101234.84;5171358;28;20093;-66
2021/08/19 04:06:34;;;;;;;30.02;21.60;;;;;;;16.73;100.00;101236.81;5171457;28;20546;-67
2021/08/19 04:09:05;;;;;;;24.03;21.37;;;;;;;16.73;100.00;101235.94;5171436;28;20067;-68
2021/08/19 04:11:37;;;;;;;26.20;21.30;;;;;;;16.71;100.00;101240.59;5177758;28;20023;-68
2021/08/19 04:14:08;;;;;;;25.58;20.90;;;;;;;16.70;100.00;101242.38;5172565;28;20022;-67
2021/08/19 04:16:39;;;;;;;29.38;22.13;;;;;;;16.70;100.00;101237.09;5170533;28;20027;-68
2021/08/19 04:19:10;;;;;;;28.38;21.48;;;;;;;16.68;100.00;101244.38;5172185;28;20082;-68
2021/08/19 04:21:42;;;;;;;27.90;22.10;;;;;;;16.67;100.00;101237.44;5171801;28;20014;-68
2021/08/19 04:24:13;;;;;;;32.33;22.95;;;;;;;16.68;100.00;101240.91;5171682;28;20026;-68
2021/08/19 04:26:44;;;;;;;29.10;21.98;;;;;;;16.64;100.00;101237.75;5171471;28;20514;-67
2021/08/19 04:29:16;;;;;;;26.75;23.30;;;;;;;16.65;100.00;101231.47;5172495;28;20030;-67
2021/08/19 04:31:47;;;;;;;27.42;22.65;;;;;;;16.64;100.00;101240.41;5171470;28;20038;-68
2021/08/19 04:34:18;;;;;;;25.95;22.92;;;;;;;16.63;100.00;101241.41;5184603;28;20035;-68
2021/08/19 04:36:50;;;;;;;26.10;22.38;;;;;;;16.62;100.00;101234.41;5172595;28;20133;-67
2021/08/19 04:39:21;;;;;;;31.30;23.75;;;;;;;16.61;100.00;101235.41;5171929;28;20051;-67
2021/08/19 04:41:52;;;;;;;32.08;24.35;;;;;;;16.61;100.00;101243.34;5171019;28;20031;-68
2021/08/19 04:44:24;;;;;;;30.55;23.98;;;;;;;16.62;100.00;101238.88;5171381;28;20033;-67
2021/08/19 04:46:55;;;;;;;33.15;24.98;;;;;;;16.61;100.00;101243.34;5171647;28;20026;-68
2021/08/19 04:49:26;;;;;;;31.20;25.13;;;;;;;16.60;100.00;101235.59;5171739;28;20035;-69
2021/08/19 04:51:58;;;;;;;31.25;24.55;;;;;;;16.59;100.00;101234.75;5170787;28;20471;-67
2021/08/19 04:54:29;;;;;;;35.72;24.80;;;;;;;16.62;100.00;101241.53;5172397;28;20031;-68
2021/08/19 04:57:01;;;;;;;29.23;24.40;;;;;;;16.61;100.00;101240.72;5171193;28;20054;-68
2021/08/19 04:59:32;;;;;;;33.40;25.65;;;;;;;16.61;100.00;101242.53;5171451;28;20038;-66
2021/08/19 05:02:03;;;;;;;30.80;24.35;;;;;;;16.63;100.00;101246.69;5172284;28;20097;-68
2021/08/19 05:04:35;;;;;;;34.88;26.63;;;;;;;16.62;100.00;101242.34;5172029;28;20102;-67
2021/08/19 05:07:06;;;;;;;33.88;25.60;;;;;;;16.63;100.00;101246.69;5171311;28;20033;-68
2021/08/19 05:09:37;;;;;;;36.38;26.30;;;;;;;16.64;100.00;101243.03;5169618;28;20023;-68
2021/08/19 05:12:08;;;;;;;32.58;26.15;;;;;;;16.63;100.00;101246.69;5174830;28;20033;-67
2021/08/19 05:14:40;;;;;;;33.00;26.08;;;;;;;16.63;100.00;101245.81;5175535;28;20026;-68
2021/08/19 05:17:11;;;;;;;32.55;26.08;;;;;;;16.67;100.00;101247.19;5173974;28;20023;-68
2021/08/19 05:19:42;;;;;;;36.67;27.10;;;;;;;16.67;100.00;101248.00;5172036;28;20169;-68
2021/08/19 05:22:13;;;;;;;31.60;26.13;;;;;;;16.67;100.00;101249.84;5174931;28;20093;-68
2021/08/19 05:24:45;;;;;;;36.80;26.70;;;;;;;16.67;100.00;101250.66;5175912;28;20096;-68
2021/08/19 05:27:16;;;;;;;35.67;27.23;;;;;;;16.70;100.00;101252.97;5174205;28;20027;-68
2021/08/19 05:29:47;;;;;;;35.20;26.60;;;;;;;16.70;100.00;101252.97;5173330;28;20038;-68
2021/08/19 05:32:19;;;;;;;38.10;27.50;;;;;;;16.69;100.00;101261.91;5174967;28;20078;-68
2021/08/19 05:34:51;;;;;;;30.83;26.15;;;;;;;16.72;100.00;101261.59;5174289;28;20042;-70
2021/08/19 05:37:22;;;;;;;35.38;27.35;;;;;;;16.72;100.00;101256.28;5174249;28;20019;-69
2021/08/19 05:39:54;;;;;;;36.33;25.42;;;;;;;16.71;100.00;101254.66;5173851;28;20642;-68
2021/08/19 05:42:26;;;;;;;31.77;27.07;;;;;;;16.73;100.00;101257.13;5175123;28;20015;-68
2021/08/19 05:44:57;;;;;;;36.97;26.35;;;;;;;16.72;100.00;101260.75;5173966;28;20138;-68
2021/08/19 05:47:29;;;;;;;33.63;26.17;;;;;;;16.76;100.00;101262.13;5173853;28;20030;-67
2021/08/19 05:50:00;;;;;;;32.70;26.47;;;;;;;16.79;100.00;101259.16;5174125;28;20030;-68
2021/08/19 05:52:32;;;;;;;33.22;26.13;;;;;;;16.83;100.00;101263.16;5174471;28;20031;-68
2021/08/19 05:55:04;;;;;;;36.63;26.48;;;;;;;16.84;100.00;101264.78;5173402;28;20368;-68
2021/08/19 05:57:35;;;;;;;35.07;27.07;;;;;;;16.84;100.00;101264.78;5174037;28;20061;-68
2021/08/19 06:00:07;;;;;;;32.42;25.65;;;;;;;16.85;100.00;101266.44;5171445;28;20058;-67
2021/08/19 06:02:42;;;;;;;34.73;25.57;;;;;;;16.91;100.00;101267.63;5172983;28;20042;-68
2021/08/19 06:05:13;;;;;;;30.92;24.48;;;;;;;16.93;100.00;101270.94;5173486;28;20495;-69
2021/08/19 06:07:45;;;;;;;34.58;25.58;;;;;;;16.94;100.00;101273.44;5172431;28;20030;-68
2021/08/19 06:10:16;;;;;;;29.40;24.73;;;;;;;16.96;100.00;101275.91;5165077;28;20082;-68
2021/08/19 06:12:48;;;;;;;31.10;24.75;;;;;;;16.97;100.00;101275.75;5172292;28;20038;-68
2021/08/19 06:15:19;;;;;;;29.88;23.05;;;;;;;16.96;100.00;101274.09;5173559;28;20025;-69
2021/08/19 06:17:50;;;;;;;31.92;24.33;;;;;;;17.00;100.00;101277.25;5173567;28;20476;-69
2021/08/19 06:20:21;;;;;;;30.50;24.77;;;;;;;16.99;100.00;101279.06;5172787;28;20500;-68
2021/08/19 06:22:55;;;;;;;28.58;23.42;;;;;;;17.00;100.00;101275.41;5169932;28;20562;-68
2021/08/19 06:25:26;;;;;;;33.95;25.48;;;;;;;16.99;100.00;101279.06;5164492;28;20125;-68
2021/08/19 06:27:57;;;;;;;30.05;24.55;;;;;;;17.01;100.00;101278.91;5169244;28;20129;-68
2021/08/19 06:30:29;;;;;;;31.00;24.27;;;;;;;17.01;100.00;101279.75;5171684;28;20022;-68
2021/08/19 06:33:01;;;;;;;30.85;24.92;;;;;;;17.01;100.00;101281.56;5173460;28;20109;-68
2021/08/19 06:35:32;;;;;;;30.88;24.35;;;;;;;16.99;100.00;101273.78;5170787;28;20027;-67
2021/08/19 06:38:03;;;;;;;33.17;24.03;;;;;;;17.04;100.00;101281.22;5170687;28;20053;-69
2021/08/19 06:40:35;;;;;;;35.20;25.70;;;;;;;17.05;100.00;101285.53;5170724;28;20073;-68
2021/08/19 06:43:06;;;;;;;30.43;24.90;;;;;;;17.05;100.00;101282.03;5170590;28;20027;-68
2021/08/19 06:45:37;;;;;;;33.65;26.27;;;;;;;17.00;100.00;101286.00;5172238;28;20023;-69
2021/08/19 06:48:09;;;;;;;33.17;24.50;;;;;;;17.02;100.00;101288.50;5171019;28;20565;-68
2021/08/19 06:50:40;;;;;;;30.27;25.33;;;;;;;17.03;100.00;101288.34;5170048;28;20041;-69
2021/08/19 06:53:11;;;;;;;30.00;25.45;;;;;;;17.03;100.00;101296.28;5171499;28;20023;-68
2021/08/19 06:55:42;;;;;;;34.97;26.05;;;;;;;17.02;100.00;101293.81;5172591;28;20029;-68
2021/08/19 06:58:14;;;;;;;37.17;25.88;;;;;;;17.01;100.00;101295.63;5173304;28;20027;-67
2021/08/19 07:00:45;;;;;;;30.60;25.48;;;;;;;16.99;100.00;101283.53;5168140;28;20051;-68
2021/08/19 07:03:17;;;;;;;33.92;26.58;;;;;;;16.97;100.00;101290.78;5171898;28;20245;-68
2021/08/19 07:05:48;;;;;;;31.33;26.25;;;;;;;16.98;100.00;101292.47;5171116;28;20038;-67
2021/08/19 07:08:20;;;;;;;35.17;26.70;;;;;;;16.95;100.00;101292.78;5171193;28;20030;-66
2021/08/19 07:10:51;;;;;;;32.38;26.63;;;;;;;16.95;100.00;101284.84;5170857;28;20027;-67
2021/08/19 07:13:22;;;;;;;33.95;26.83;;;;;;;16.95;100.00;101298.09;5171803;28;20480;-67
2021/08/19 07:15:54;;;;;;;33.50;25.83;;;;;;;16.96;100.00;101303.19;5172079;28;20122;-66
2021/08/19 07:18:25;;;;;;;33.85;26.35;;;;;;;16.96;100.00;101294.44;5173306;28;20074;-67
2021/08/19 07:20:56;;;;;;;33.88;27.67;;;;;;;16.94;100.00;101294.59;5170523;28;20022;-67
2021/08/19 07:23:27;;;;;;;34.03;27.00;;;;;;;16.97;100.00;101294.28;5161270;28;20505;-66
2021/08/19 07:25:59;;;;;;;35.53;27.95;;;;;;;16.99;100.00;101292.31;5157815;28;20388;-67
2021/08/19 07:28:31;;;;;;;38.10;29.83;;;;;;;16.97;100.00;101293.44;5170009;28;20396;-67
2021/08/19 07:31:03;;;;;;;37.28;27.88;;;;;;;16.93;100.00;101297.41;5170407;28;20034;-69
2021/08/19 07:33:34;;;;;;;34.30;27.80;;;;;;;16.97;100.00;101304.03;5170715;28;20295;-67
2021/08/19 07:36:05;;;;;;;38.40;28.48;;;;;;;16.97;100.00;101304.03;5171739;28;20058;-67
2021/08/19 07:38:37;;;;;;;34.20;27.42;;;;;;;16.99;100.00;101302.06;5170991;28;20050;-67
2021/08/19 07:41:08;;;;;;;35.22;26.27;;;;;;;17.04;100.00;101302.41;5170559;28;20057;-67
2021/08/19 07:43:39;;;;;;;31.45;26.52;;;;;;;17.04;100.00;101305.03;5171273;28;20037;-67
2021/08/19 07:46:11;;;;;;;34.30;27.40;;;;;;;17.00;100.00;101307.19;5172939;28;20062;-67
2021/08/19 07:48:44;;;;;;;31.50;26.23;;;;;;;17.04;100.00;101307.69;5166165;28;20042;-68
2021/08/19 07:51:16;;;;;;;35.17;25.88;;;;;;;17.09;100.00;101308.06;5167025;28;20035;-66
2021/08/19 07:53:47;;;;;;;32.67;25.77;;;;;;;17.02;100.00;101307.03;5167234;28;20030;-67
2021/08/19 07:56:18;;;;;;;30.70;25.27;;;;;;;17.02;100.00;101310.50;5162758;28;20141;-67
2021/08/19 07:58:50;;;;;;;32.40;25.10;;;;;;;17.07;100.00;101310.03;5167373;28;20077;-67
2021/08/19 08:01:22;;;;;;;30.27;24.80;;;;;;;17.06;100.00;101308.38;5170516;28;20022;-67
2021/08/19 08:03:53;;;;;;;31.77;25.53;;;;;;;17.02;100.00;101315.81;5172072;28;20049;-67
2021/08/19 08:06:24;;;;;;;31.90;26.33;;;;;;;17.00;100.00;101323.06;5165789;28;20022;-68
2021/08/19 08:08:56;;;;;;;32.30;25.67;;;;;;;17.01;100.00;101322.09;5165994;28;20027;-66
2021/08/19 08:11:27;;;;;;;28.15;25.08;;;;;;;17.02;100.00;101321.09;5170094;28;20030;-66
2021/08/19 08:13:58;;;;;;;31.35;24.08;;;;;;;17.06;100.00;101324.25;5160155;28;20099;-68
2021/08/19 08:16:30;;;;;;;30.17;24.40;;;;;;;17.08;100.00;101321.44;5170646;28;20119;-67
2021/08/19 08:19:02;;;;;;;27.20;24.30;;;;;;;17.02;100.00;101321.09;5169677;28;20080;-67
2021/08/19 08:21:36;;;;;;;26.70;23.85;;;;;;;17.01;100.00;101322.09;5165136;28;20082;-68
2021/08/19 08:24:08;;;;;;;26.90;24.00;;;;;;;16.98;100.00;101326.88;5169243;28;20436;-66
2021/08/19 08:26:39;;;;;;;26.83;22.95;;;;;;;17.01;100.00;101324.75;5167927;28;20111;-66
2021/08/19 08:29:12;;;;;;;28.17;23.90;;;;;;;16.99;100.00;101323.25;5165195;28;20464;-67
2021/08/19 08:31:45;;;;;;;25.75;23.08;;;;;;;17.01;100.00;101329.22;5163015;28;20022;-68
2021/08/19 08:34:16;;;;;;;26.23;23.42;;;;;;;17.08;100.00;101318.78;5163583;28;20278;-67
2021/08/19 08:36:48;;;;;;;24.67;22.13;;;;;;;17.12;100.00;101323.63;5170658;28;20484;-67
2021/08/19 08:39:20;;;;;;;26.52;23.73;;;;;;;17.21;100.00;101327.94;5170962;28;20082;-67
2021/08/19 08:41:52;;;;;;;27.40;23.60;;;;;;;17.25;100.00;101331.91;5170612;28;20038;-67
2021/08/19 08:44:28;;;;;;;32.35;24.90;;;;;;;17.29;100.00;101335.06;5169714;28;20324;-65
2021/08/19 08:47:00;;;;;;;27.92;24.90;;;;;;;17.32;100.00;101337.41;5171138;28;20030;-67
2021/08/19 08:49:32;;;;;;;27.80;24.80;;;;;;;17.39;100.00;101333.13;5170049;28;20030;-67
2021/08/19 08:52:05;;;;;;;31.47;26.33;;;;;;;17.44;100.00;101332.63;5171610;28;20042;-67
2021/08/19 08:54:37;;;;;;;31.48;26.27;;;;;;;17.55;100.00;101329.66;5172683;28;20031;-66
2021/08/19 08:57:08;;;;;;;26.67;23.98;;;;;;;17.62;100.00;101335.13;5173165;28;20760;-67
2021/08/19 08:59:39;;;;;;;34.80;27.00;;;;;;;17.59;100.00;101338.94;5175023;28;20031;-67
2021/08/19 09:02:11;;;;;;;30.43;25.73;;;;;;;17.69;100.00;101344.91;5174809;28;20377;-66
2021/08/19 09:04:43;;;;;;;29.50;24.80;;;;;;;17.69;100.00;101344.06;5174547;28;20383;-66
2021/08/19 09:07:14;;;;;;;26.60;23.97;;;;;;;17.70;100.00;101346.56;5172455;28;20026;-67
2021/08/19 09:09:45;;;;;;;28.17;25.13;;;;;;;17.71;100.00;101345.56;5170388;28;20125;-66
2021/08/19 09:12:21;;;;;;;28.63;25.63;;;;;;;17.77;100.00;101341.47;5168498;28;20026;-66
2021/08/19 09:14:54;;;;;;;28.20;25.45;;;;;;;17.79;100.00;101349.25;5166349;28;20484;-66
2021/08/19 09:17:51;;;;;;;28.02;24.48;;;;;;;17.86;100.00;101351.06;5169236;28;20031;-67
2021/08/19 09:20:33;;;;;;;28.70;24.63;;;;;;;17.86;100.00;101345.78;5171888;28;20080;-67
2021/08/19 09:23:06;;;;;;;29.80;25.58;;;;;;;17.78;100.00;101359.03;5174319;28;20484;-67
2021/08/19 09:25:43;;;;;;;26.77;24.17;;;;;;;17.82;100.00;101354.22;5172030;28;20467;-66
2021/08/19 09:28:22;;;;;;;27.17;24.58;;;;;;;17.78;100.00;101352.91;5167607;28;20570;-66
2021/08/19 09:30:56;;;;;;;25.30;22.77;;;;;;;17.78;100.00;101358.19;5169823;28;20026;-67
2021/08/19 09:33:29;;;;;;;26.83;24.02;;;;;;;17.76;100.00;101355.69;5170701;28;20035;-67
2021/08/19 09:36:08;;;;;;;28.65;25.95;;;;;;;17.75;100.00;101357.53;5172673;28;20026;-67
2021/08/19 09:38:44;;;;;;;27.10;24.27;;;;;;;17.83;100.00;101366.47;5166587;28;20149;-67
2021/08/19 09:41:17;;;;;;;27.13;24.38;;;;;;;17.83;100.00;101359.34;5176229;28;20046;-66
2021/08/19 09:43:49;;;;;;;;;;;;;;;18.13;100.00;101360.50;5170884;28;20672;-67
2021/08/19 09:46:37;;;;;;;25.75;22.00;;;;;;;18.05;100.00;101357.88;5165421;28;19922;-65
2021/08/19 09:49:27;;;;;;;24.38;22.08;;;;;;;18.08;100.00;101356.72;5169028;28;20420;-67
2021/08/19 09:52:07;;;;;;;23.90;21.40;;;;;;;18.15;100.00;101355.06;5171053;28;20094;-67
2021/08/19 09:54:40;;;;;;;25.98;21.33;;;;;;;18.25;100.00;101358.34;5170315;28;20047;-66
2021/08/19 09:57:11;;;;;;;21.73;19.65;;;;;;;18.30;100.00;101355.22;5170456;28;20511;-66
2021/08/19 09:59:44;;;;;;;19.50;17.73;;;;;;;18.35;100.00;101347.56;5172477;28;20029;-67
2021/08/19 10:02:15;;;;;;;19.83;17.85;;;;;;;18.31;100.00;101352.38;5172564;28;20026;-67
2021/08/19 10:04:48;;;;;;;19.70;17.27;;;;;;;18.40;100.00;101348.69;5170104;28;20038;-67
2021/08/19 10:07:19;;;;;;;17.70;15.82;;;;;;;18.24;100.00;101346.91;5170739;28;20037;-67
2021/08/19 10:09:51;;;;;;;17.33;15.63;;;;;;;18.23;100.00;101357.69;5166885;28;20376;-67
2021/08/19 10:12:22;;;;;;;14.82;13.32;;;;;;;18.18;100.00;101360.84;5166808;28;20031;-66
2021/08/19 10:14:53;;;;;;;16.77;15.17;;;;;;;18.20;100.00;101360.69;5171403;28;20022;-67
2021/08/19 10:17:25;;;;;;;19.13;15.17;;;;;;;18.16;100.00;101360.19;5172468;28;20114;-67
2021/08/19 10:19:57;;;;;;;17.65;15.45;;;;;;;18.27;100.00;101351.06;5171600;28;20026;-67
2021/08/19 10:22:34;;;;;;;18.50;16.57;;;;;;;18.32;100.00;101353.19;5169326;28;20019;-68
2021/08/19 10:25:06;;;;;;;18.52;16.73;;;;;;;18.38;100.00;101352.53;5171676;28;20073;-67
2021/08/19 10:27:37;;;;;;;17.03;15.43;;;;;;;18.47;100.00;101354.97;5169483;28;20520;-67
2021/08/19 10:30:20;;;;;;;17.33;15.43;;;;;;;18.62;100.00;101351.63;5170348;28;20030;-68
2021/08/19 10:32:52;;;;;;;18.27;16.50;;;;;;;18.56;100.00;101354.97;5168844;28;20064;-67
2021/08/19 10:35:27;;;;;;;18.40;16.60;;;;;;;18.64;100.00;101350.47;5170197;28;20599;-68
2021/08/19 10:38:00;;;;;;;17.60;15.32;;;;;;;18.57;100.00;101344.19;5170305;28;20038;-67
2021/08/19 10:40:34;;;;;;;15.75;14.25;;;;;;;18.64;100.00;101349.66;5170806;28;20042;-67
2021/08/19 10:43:32;;;;;;;13.65;12.27;;;;;;;18.76;100.00;101345.66;5168789;28;20030;-67
2021/08/19 10:46:05;;;;;;;13.25;11.95;;;;;;;18.71;100.00;101346.19;5172071;28;20042;-68
2021/08/19 10:48:53;;;;;;;16.55;12.80;;;;;;;18.81;100.00;101342.47;5170153;28;20132;-68
2021/08/19 10:51:29;;;;;;;14.00;11.55;;;;;;;18.86;100.00;101338.28;5171321;28;20026;-68
2021/08/19 10:54:34;;;;;;;12.73;11.40;;;;;;;19.01;100.00;101335.75;5171216;28;20030;-68
2021/08/19 10:57:24;;;;;;;17.13;13.50;;;;;;;18.99;100.00;101342.25;5160477;28;20026;-68
2021/08/19 11:00:07;;;;;;;14.07;12.65;;;;;;;18.95;100.00;101336.47;5173584;28;20465;-68
2021/08/19 11:02:47;;;;;;;15.57;14.13;;;;;;;18.93;100.00;101341.09;5171279;28;20614;-66
2021/08/19 11:05:21;;;;;;;15.18;13.55;;;;;;;18.91;100.00;101341.28;5172342;28;20042;-68
2021/08/19 11:07:53;;;;;;;16.52;14.93;;;;;;;18.81;100.00;101347.78;5170604;28;20491;-68
2021/08/19 11:10:32;;;;;;;15.10;13.70;;;;;;;18.93;100.00;101349.06;5170607;28;20078;-67
2021/08/19 11:13:09;;;;;;;15.85;14.18;;;;;;;18.94;100.00;101346.25;5166129;28;20022;-68
2021/08/19 11:15:49;;;;;;;15.85;14.25;;;;;;;19.00;100.00;101350.03;5164148;28;20038;-68
2021/08/19 11:18:31;;;;;;;15.07;13.55;;;;;;;19.00;100.00;101349.22;5168368;28;20752;-68
2021/08/19 11:21:04;;;;;;;13.70;12.40;;;;;;;19.01;100.00;101346.38;5171836;28;20027;-67
2021/08/19 11:23:38;;;;;;;15.90;13.52;;;;;;;18.97;100.00;101345.06;5164111;28;20026;-68
2021/08/19 11:26:16;;;;;;;14.70;13.20;;;;;;;19.07;100.00;101348.34;5167379;28;20532;-67